createdAt,value
2022-09-23T00:01:58.785Z,92.09
2022-09-23T00:04:29.439Z,91.93
2022-09-23T00:06:58.102Z,92.04
2022-09-23T00:09:26.829Z,91.86
2022-09-23T00:11:57.437Z,92.02
2022-09-23T00:14:25.296Z,91.83
2022-09-23T00:16:54.031Z,92.12
2022-09-23T00:19:23.144Z,92.09
2022-09-23T00:21:51.775Z,92.09
2022-09-23T00:24:20.484Z,92.29
2022-09-23T00:26:49.151Z,92.16
2022-09-23T00:29:18.376Z,92.24
2022-09-23T00:31:47.355Z,92.37
2022-09-23T00:34:16.180Z,92.05
2022-09-23T00:36:44.911Z,92.04
2022-09-23T00:39:13.794Z,92.12
2022-09-23T00:41:42.599Z,92.11
2022-09-23T00:44:43.130Z,92.05
2022-09-23T00:47:14.847Z,92.17
2022-09-23T00:49:46.985Z,91.87
2022-09-23T00:52:20.644Z,91.71
2022-09-23T00:54:52.296Z,91.42
2022-09-23T00:57:22.760Z,91.41
2022-09-23T00:59:51.653Z,91.53
2022-09-23T01:02:21.182Z,91.20
2022-09-23T01:04:51.299Z,91.37
2022-09-23T01:07:21.290Z,91.35
2022-09-23T01:09:50.669Z,91.46
2022-09-23T01:12:43.695Z,91.13
2022-09-23T01:15:18.464Z,91.37
2022-09-23T01:17:55.643Z,91.32
2022-09-23T01:21:03.995Z,91.35
2022-09-23T01:24:15.527Z,91.14
2022-09-23T01:27:02.357Z,91.11
2022-09-23T01:30:11.903Z,91.23
2022-09-23T01:32:50.266Z,90.90
2022-09-23T01:35:29.773Z,91.29
2022-09-23T01:38:09.618Z,91.08
2022-09-23T01:40:48.640Z,91.17
2022-09-23T01:43:25.765Z,91.07
2022-09-23T01:45:59.235Z,91.04
2022-09-23T01:48:35.218Z,91.11
2022-09-23T01:51:08.511Z,91.13
2022-09-23T01:53:45.740Z,91.15
2022-09-23T01:56:18.191Z,91.31
2022-09-23T01:58:56.668Z,91.01
2022-09-23T02:01:30.525Z,91.08
2022-09-23T02:04:08.329Z,90.98
2022-09-23T02:06:43.139Z,91.07
2022-09-23T02:09:15.588Z,91.13
2022-09-23T02:11:48.616Z,91.12
2022-09-23T02:14:23.623Z,91.03
2022-09-23T02:16:56.608Z,91.05
2022-09-23T02:19:30.904Z,90.84
2022-09-23T02:22:05.275Z,91.04
2022-09-23T02:24:39.780Z,90.89
2022-09-23T02:27:17.986Z,90.83
2022-09-23T02:32:46.494Z,90.74
2022-09-23T02:35:22.030Z,90.56
2022-09-23T02:38:00.788Z,90.59
2022-09-23T02:40:37.899Z,90.67
2022-09-23T02:43:11.590Z,90.76
2022-09-23T02:45:40.326Z,90.66
2022-09-23T02:48:14.236Z,90.53
2022-09-23T02:50:43.412Z,90.55
2022-09-23T02:53:12.093Z,90.36
2022-09-23T02:55:42.617Z,90.43
2022-09-23T02:58:12.732Z,90.39
2022-09-23T03:00:54.520Z,90.67
2022-09-23T03:03:34.704Z,90.33
2022-09-23T03:06:17.668Z,90.39
2022-09-23T03:08:52.809Z,90.46
2022-09-23T03:11:21.869Z,90.31
2022-09-23T03:14:06.579Z,90.37
2022-09-23T03:16:43.035Z,90.19
2022-09-23T03:19:23.371Z,90.23
2022-09-23T03:22:01.201Z,90.50
2022-09-23T03:24:34.036Z,90.13
2022-09-23T03:27:07.754Z,90.58
2022-09-23T03:29:41.842Z,90.22
2022-09-23T03:32:11.484Z,90.62
2022-09-23T03:34:44.080Z,90.29
2022-09-23T03:37:18.294Z,90.15
2022-09-23T03:39:52.769Z,90.31
2022-09-23T03:42:24.489Z,90.60
2022-09-23T03:44:56.598Z,90.33
2022-09-23T03:47:26.827Z,90.29
2022-09-23T03:49:56.864Z,90.09
2022-09-23T03:52:26.722Z,90.13
2022-09-23T03:54:55.512Z,90.41
2022-09-23T03:57:25.979Z,90.16
2022-09-23T03:59:54.903Z,90.06
2022-09-23T04:02:23.843Z,89.93
2022-09-23T04:04:52.640Z,89.87
2022-09-23T04:07:21.419Z,89.67
2022-09-23T04:09:50.300Z,90.10
2022-09-23T04:12:19.351Z,90.07
2022-09-23T04:14:48.132Z,90.07
2022-09-23T04:17:17.631Z,89.93
2022-09-23T04:19:46.400Z,89.90
2022-09-23T04:22:15.094Z,90.06
2022-09-23T04:24:46.068Z,90.15
2022-09-23T04:27:14.840Z,89.92
2022-09-23T04:29:43.637Z,90.00
2022-09-23T04:32:22.168Z,89.79
2022-09-23T04:34:51.157Z,89.89
2022-09-23T04:37:20.232Z,89.91
2022-09-23T04:39:49.033Z,89.86
2022-09-23T04:42:18.028Z,90.15
2022-09-23T04:44:46.818Z,89.84
2022-09-23T04:47:15.973Z,90.00
2022-09-23T04:49:44.681Z,90.02
2022-09-23T04:52:13.484Z,90.02
2022-09-23T04:54:42.247Z,90.19
2022-09-23T04:57:11.041Z,90.02
2022-09-23T04:59:40.897Z,90.13
2022-09-23T05:02:10.710Z,90.15
2022-09-23T05:04:41.140Z,90.29
2022-09-23T05:07:10.313Z,90.26
2022-09-23T05:09:39.368Z,90.32
2022-09-23T05:12:11.249Z,90.36
2022-09-23T05:14:40.067Z,90.37
2022-09-23T05:17:08.761Z,90.53
2022-09-23T05:19:38.114Z,90.75
2022-09-23T05:22:07.603Z,90.93
2022-09-23T05:24:36.297Z,91.06
2022-09-23T05:27:07.325Z,91.25
2022-09-23T05:29:36.023Z,91.38
2022-09-23T05:32:04.920Z,91.53
2022-09-23T05:34:33.715Z,91.72
2022-09-23T05:37:02.644Z,92.02
2022-09-23T05:39:35.317Z,91.82
2022-09-23T05:42:04.701Z,92.35
2022-09-23T05:44:33.636Z,92.65
2022-09-23T05:47:05.450Z,92.91
2022-09-23T05:49:58.065Z,93.15
2022-09-23T05:52:25.819Z,93.67
2022-09-23T05:54:54.786Z,93.79
2022-09-23T05:57:23.926Z,93.74
2022-09-23T05:59:52.604Z,93.96
2022-09-23T06:02:21.210Z,94.13
2022-09-23T06:04:50.482Z,94.47
2022-09-23T06:07:19.209Z,94.59
2022-09-23T06:09:47.855Z,94.68
2022-09-23T06:12:16.566Z,94.88
2022-09-23T06:14:45.211Z,94.99
2022-09-23T06:17:13.877Z,95.15
2022-09-23T06:19:44.166Z,95.03
2022-09-23T06:22:16.286Z,95.33
2022-09-23T06:24:45.209Z,95.67
2022-09-23T06:27:14.190Z,95.88
2022-09-23T06:29:43.403Z,95.66
2022-09-23T06:32:12.107Z,95.80
2022-09-23T06:34:51.946Z,96.16
2022-09-23T06:37:21.271Z,95.99
2022-09-23T06:39:50.277Z,95.90
2022-09-23T06:42:22.194Z,95.81
2022-09-23T06:44:50.816Z,96.11
2022-09-23T06:47:22.838Z,96.56
2022-09-23T06:49:51.454Z,96.63
2022-09-23T06:52:20.621Z,96.79
2022-09-23T06:54:49.482Z,97.05
2022-09-23T06:57:20.682Z,96.77
2022-09-23T06:59:49.690Z,97.23
2022-09-23T07:02:18.861Z,97.14
2022-09-23T07:04:47.680Z,97.02
2022-09-23T07:07:18.052Z,96.76
2022-09-23T07:09:50.506Z,97.30
2022-09-23T07:12:19.196Z,98.68
2022-09-23T07:14:48.163Z,100.00
2022-09-23T07:17:16.824Z,100.00
2022-09-23T07:19:45.593Z,96.58
2022-09-23T07:22:14.226Z,92.32
2022-09-23T07:24:43.360Z,91.27
2022-09-23T07:27:13.659Z,92.02
2022-09-23T07:29:48.498Z,93.47
2022-09-23T07:32:18.026Z,92.59
2022-09-23T07:34:47.045Z,91.36
2022-09-23T07:37:16.707Z,89.93
2022-09-23T07:39:45.655Z,88.79
2022-09-23T07:42:15.186Z,87.55
2022-09-23T07:44:44.736Z,86.38
2022-09-23T07:47:13.747Z,85.58
2022-09-23T07:49:42.642Z,84.94
2022-09-23T07:52:11.381Z,82.28
2022-09-23T07:54:40.069Z,82.10
2022-09-23T07:57:10.332Z,81.40
2022-09-23T07:59:40.085Z,79.07
2022-09-23T08:02:11.023Z,76.21
2022-09-23T08:04:40.209Z,74.72
2022-09-23T08:07:09.503Z,73.66
2022-09-23T08:09:41.093Z,73.53
2022-09-23T08:12:15.877Z,73.34
2022-09-23T08:14:45.843Z,72.36
2022-09-23T08:17:14.632Z,72.25
2022-09-23T08:19:43.682Z,69.09
2022-09-23T08:22:12.358Z,67.15
2022-09-23T08:24:40.996Z,64.39
2022-09-23T08:27:12.151Z,61.50
2022-09-23T08:29:40.845Z,59.79
2022-09-23T08:32:09.501Z,59.36
2022-09-23T08:34:39.513Z,58.29
2022-09-23T08:37:11.036Z,57.57
2022-09-23T08:39:39.686Z,55.25
2022-09-23T08:42:17.236Z,54.59
2022-09-23T08:44:50.560Z,53.95
2022-09-23T08:47:23.903Z,54.99
2022-09-23T08:49:58.998Z,54.27
2022-09-23T08:52:35.663Z,52.79
2022-09-23T08:55:05.983Z,51.28
2022-09-23T08:58:02.249Z,49.68
2022-09-23T09:00:42.098Z,46.97
2022-09-23T09:03:24.193Z,45.86
2022-09-23T09:05:54.628Z,45.02
2022-09-23T09:08:29.163Z,44.02
2022-09-23T09:10:58.908Z,43.37
2022-09-23T09:13:33.129Z,42.15
2022-09-23T09:16:23.885Z,40.49
2022-09-23T09:19:16.564Z,38.44
2022-09-23T09:21:47.323Z,37.15
2022-09-23T09:24:24.796Z,36.86
2022-09-23T09:26:54.336Z,35.27
2022-09-23T09:29:34.731Z,33.45
2022-09-23T09:32:16.148Z,32.27
2022-09-23T09:34:54.100Z,31.15
2022-09-23T09:37:32.369Z,30.08
2022-09-23T09:40:01.945Z,29.29
2022-09-23T09:42:39.342Z,29.38
2022-09-23T09:45:19.731Z,29.05
2022-09-23T09:47:56.116Z,29.15
2022-09-23T09:50:43.457Z,29.50
2022-09-23T09:53:24.123Z,29.72
2022-09-23T09:56:05.774Z,30.46
2022-09-23T09:58:43.175Z,30.95
2022-09-23T10:01:23.045Z,31.49
2022-09-23T10:03:56.931Z,32.30
2022-09-23T10:06:31.815Z,32.39
2022-09-23T10:09:14.854Z,32.99
2022-09-23T10:12:01.966Z,33.70
2022-09-23T10:14:31.015Z,33.76
2022-09-23T10:17:05.071Z,34.10
2022-09-23T10:19:36.594Z,34.32
2022-09-23T10:22:09.869Z,34.06
2022-09-23T10:24:47.289Z,34.29
2022-09-23T10:27:25.225Z,35.22
2022-09-23T10:29:57.192Z,35.97
2022-09-23T10:32:29.434Z,36.41
2022-09-23T10:35:02.005Z,37.22
2022-09-23T10:37:37.510Z,37.68
2022-09-23T10:40:37.466Z,38.00
2022-09-23T10:43:43.404Z,38.64
2022-09-23T10:46:37.783Z,39.36
2022-09-23T10:49:43.741Z,40.08
2022-09-23T10:52:26.743Z,40.07
2022-09-23T10:55:07.253Z,39.97
2022-09-23T10:57:42.436Z,39.87
2022-09-23T11:00:22.426Z,40.00
2022-09-23T11:03:26.183Z,40.81
2022-09-23T11:06:12.219Z,40.62
2022-09-23T11:09:09.538Z,40.85
2022-09-23T11:11:50.079Z,41.24
2022-09-23T11:14:38.158Z,41.83
2022-09-23T11:17:29.401Z,42.61
2022-09-23T11:20:28.701Z,42.97
2022-09-23T11:23:21.505Z,43.23
2022-09-23T11:25:58.532Z,43.34
2022-09-23T11:29:13.408Z,43.61
2022-09-23T11:31:54.070Z,44.06
2022-09-23T11:34:52.607Z,44.10
2022-09-23T11:37:29.556Z,43.98
2022-09-23T11:40:03.348Z,43.82
2022-09-23T11:42:35.875Z,44.33
2022-09-23T11:45:14.517Z,44.10
2022-09-23T11:47:50.360Z,44.06
2022-09-23T11:50:26.412Z,44.59
2022-09-23T11:53:01.458Z,45.15
2022-09-23T11:55:33.533Z,45.47
2022-09-23T11:58:19.729Z,45.67
2022-09-23T12:01:00.852Z,46.36
2022-09-23T12:03:44.670Z,46.82
2022-09-23T12:06:18.833Z,47.53
2022-09-23T12:08:49.693Z,48.11
2022-09-23T12:11:28.270Z,48.63
2022-09-23T12:14:18.017Z,49.36
2022-09-23T12:17:08.751Z,49.20
2022-09-23T12:19:57.646Z,48.92
2022-09-23T12:22:46.083Z,48.11
2022-09-23T12:25:37.634Z,49.13
2022-09-23T12:28:12.232Z,48.28
2022-09-23T12:30:41.856Z,48.44
2022-09-23T12:33:16.190Z,48.56
2022-09-23T12:35:46.927Z,48.64
2022-09-23T12:38:21.388Z,48.99
2022-09-23T12:40:51.605Z,48.62
2022-09-23T12:43:29.074Z,48.31
2022-09-23T12:46:19.757Z,48.11
2022-09-23T12:48:59.935Z,48.82
2022-09-23T12:51:30.231Z,48.75
2022-09-23T12:54:14.689Z,48.71
2022-09-23T12:57:00.453Z,48.20
2022-09-23T12:59:31.807Z,48.12
2022-09-23T13:02:25.608Z,48.31
2022-09-23T13:05:21.194Z,48.47
2022-09-23T13:07:50.869Z,47.96
2022-09-23T13:10:32.073Z,48.05
2022-09-23T13:13:02.076Z,48.27
2022-09-23T13:15:33.533Z,48.18
2022-09-23T13:18:37.063Z,49.09
2022-09-23T13:21:18.578Z,48.25
2022-09-23T13:24:18.899Z,47.51
2022-09-23T13:26:49.845Z,47.23
2022-09-23T13:29:24.686Z,47.64
2022-09-23T13:31:55.949Z,47.99
2022-09-23T13:34:30.296Z,48.02
2022-09-23T13:37:10.942Z,47.81
2022-09-23T13:39:39.653Z,47.81
2022-09-23T13:42:17.974Z,48.55
2022-09-23T13:44:46.975Z,48.63
2022-09-23T13:47:16.076Z,48.76
2022-09-23T13:49:47.367Z,49.30
2022-09-23T13:52:26.742Z,49.84
2022-09-23T13:54:55.593Z,50.11
2022-09-23T13:57:29.523Z,50.61
2022-09-23T14:00:14.546Z,51.06
2022-09-23T14:02:44.063Z,52.09
2022-09-23T14:05:21.202Z,52.81
2022-09-23T14:07:50.937Z,53.17
2022-09-23T14:10:23.511Z,53.75
2022-09-23T14:12:54.939Z,53.89
2022-09-23T14:15:27.167Z,54.44
2022-09-23T14:18:06.060Z,54.18
2022-09-23T14:20:46.376Z,54.13
2022-09-23T14:23:15.148Z,54.03
2022-09-23T14:25:46.177Z,53.31
2022-09-23T14:28:18.082Z,53.37
2022-09-23T14:30:51.542Z,53.50
2022-09-23T14:33:25.997Z,53.53
2022-09-23T14:36:01.335Z,53.65
2022-09-23T14:38:49.959Z,52.82
2022-09-23T14:41:23.328Z,52.62
2022-09-23T14:43:58.288Z,52.61
2022-09-23T14:46:29.492Z,53.26
2022-09-23T14:49:02.803Z,54.07
2022-09-23T14:51:40.385Z,54.30
2022-09-23T14:54:33.421Z,54.92
2022-09-23T14:57:05.278Z,55.33
2022-09-23T14:59:37.689Z,55.55
2022-09-23T15:02:31.165Z,56.22
2022-09-23T15:05:15.333Z,56.41
2022-09-23T15:07:47.761Z,56.80
2022-09-23T15:10:22.784Z,57.18
2022-09-23T15:12:54.598Z,57.53
2022-09-23T15:15:27.800Z,57.82
2022-09-23T15:18:03.248Z,58.25
2022-09-23T15:20:32.282Z,58.48
2022-09-23T15:23:02.141Z,58.75
2022-09-23T15:25:34.868Z,58.98
2022-09-23T15:28:17.653Z,59.66
2022-09-23T15:30:46.587Z,59.69
2022-09-23T15:33:16.830Z,59.98
2022-09-23T15:35:48.070Z,60.31
2022-09-23T15:38:17.334Z,60.57
2022-09-23T15:40:46.742Z,60.93
2022-09-23T15:43:22.088Z,61.20
2022-09-23T15:45:52.958Z,60.91
2022-09-23T15:48:25.347Z,61.37
2022-09-23T15:50:54.628Z,61.39
2022-09-23T15:53:25.655Z,61.00
2022-09-23T15:55:54.445Z,60.93
2022-09-23T15:58:24.584Z,60.87
2022-09-23T16:00:56.939Z,60.72
2022-09-23T16:03:28.963Z,61.57
2022-09-23T16:06:02.579Z,61.68
2022-09-23T16:08:32.228Z,61.84
2022-09-23T16:11:00.973Z,62.19
2022-09-23T16:13:29.759Z,62.24
2022-09-23T16:15:58.417Z,62.17
2022-09-23T16:18:27.256Z,62.44
2022-09-23T16:20:57.108Z,62.42
2022-09-23T16:23:34.932Z,62.76
2022-09-23T16:26:07.006Z,62.79
2022-09-23T16:28:35.702Z,62.82
2022-09-23T16:31:04.815Z,63.24
2022-09-23T16:33:33.632Z,63.32
2022-09-23T16:36:02.906Z,63.26
2022-09-23T16:38:32.307Z,63.58
2022-09-23T16:41:02.282Z,63.71
2022-09-23T16:43:32.059Z,64.10
2022-09-23T16:46:00.795Z,64.15
2022-09-23T16:48:29.464Z,64.60
2022-09-23T16:51:02.179Z,64.68
2022-09-23T16:53:31.408Z,65.07
2022-09-23T16:56:07.265Z,65.16
2022-09-23T16:58:36.179Z,65.19
2022-09-23T17:01:20.939Z,65.44
2022-09-23T17:03:49.817Z,65.47
2022-09-23T17:06:18.936Z,65.61
2022-09-23T17:08:48.512Z,65.85
2022-09-23T17:11:17.779Z,65.73
2022-09-23T17:13:46.958Z,66.25
2022-09-23T17:16:24.782Z,65.97
2022-09-23T17:18:55.219Z,66.32
2022-09-23T17:21:33.182Z,66.37
2022-09-23T17:24:02.595Z,66.32
2022-09-23T17:26:31.602Z,66.59
2022-09-23T17:29:01.567Z,66.67
2022-09-23T17:31:30.485Z,66.67
2022-09-23T17:34:00.303Z,66.79
2022-09-23T17:36:29.041Z,67.23
2022-09-23T17:38:57.717Z,67.42
2022-09-23T17:41:26.914Z,67.40
2022-09-23T17:43:56.492Z,67.65
2022-09-23T17:46:25.333Z,67.79
2022-09-23T17:48:54.858Z,67.82
2022-09-23T17:51:24.801Z,67.86
2022-09-23T17:53:53.421Z,67.87
2022-09-23T17:56:24.978Z,67.88
2022-09-23T17:58:54.577Z,67.90
2022-09-23T18:01:27.352Z,67.88
2022-09-23T18:03:59.082Z,68.28
2022-09-23T18:06:31.009Z,68.13
2022-09-23T18:09:03.147Z,68.33
2022-09-23T18:11:34.131Z,68.50
2022-09-23T18:14:04.863Z,68.83
2022-09-23T18:16:36.643Z,69.02
2022-09-23T18:19:06.436Z,69.21
2022-09-23T18:21:39.454Z,68.91
2022-09-23T18:24:31.404Z,68.98
2022-09-23T18:26:59.247Z,69.11
2022-09-23T18:29:28.828Z,69.33
2022-09-23T18:32:01.113Z,69.60
2022-09-23T18:34:33.092Z,69.44
2022-09-23T18:37:02.137Z,69.83
2022-09-23T18:39:30.956Z,69.71
2022-09-23T18:42:00.348Z,69.85
2022-09-23T18:44:30.943Z,69.99
2022-09-23T18:46:59.852Z,69.81
2022-09-23T18:49:47.144Z,70.20
2022-09-23T18:52:16.411Z,70.17
2022-09-23T18:54:48.455Z,70.30
2022-09-23T18:57:19.604Z,70.56
2022-09-23T18:59:49.072Z,70.70
2022-09-23T19:02:20.075Z,70.62
2022-09-23T19:04:48.924Z,70.89
2022-09-23T19:07:17.556Z,70.86
2022-09-23T19:09:46.300Z,70.75
2022-09-23T19:12:15.516Z,70.97
2022-09-23T19:14:44.307Z,70.92
2022-09-23T19:17:16.144Z,70.88
2022-09-23T19:19:49.488Z,71.04
2022-09-23T19:22:18.947Z,70.83
2022-09-23T19:24:49.117Z,71.01
2022-09-23T19:27:17.831Z,71.17
2022-09-23T19:29:46.894Z,71.53
2022-09-23T19:32:15.912Z,71.45
2022-09-23T19:34:45.682Z,71.14
2022-09-23T19:37:16.302Z,71.30
2022-09-23T19:39:46.937Z,71.61
2022-09-23T19:42:16.557Z,71.94
2022-09-23T19:44:45.321Z,71.83
2022-09-23T19:47:17.057Z,71.87
2022-09-23T19:49:48.158Z,72.28
2022-09-23T19:52:16.958Z,72.19
2022-09-23T19:54:48.474Z,72.14
2022-09-23T19:57:18.856Z,72.30
2022-09-23T19:59:47.537Z,72.66
2022-09-23T20:02:16.680Z,72.61
2022-09-23T20:04:50.781Z,72.72
2022-09-23T20:07:19.838Z,73.00
2022-09-23T20:09:49.958Z,72.84
2022-09-23T20:12:18.806Z,72.69
2022-09-23T20:14:47.427Z,73.18
2022-09-23T20:17:16.967Z,72.94
2022-09-23T20:19:46.848Z,73.11
2022-09-23T20:22:24.523Z,73.59
2022-09-23T20:24:53.431Z,73.37
2022-09-23T20:27:22.672Z,73.65
2022-09-23T20:29:51.910Z,73.79
2022-09-23T20:32:20.685Z,73.81
2022-09-23T20:34:49.373Z,73.95
2022-09-23T20:37:19.823Z,73.86
2022-09-23T20:39:48.006Z,73.99
2022-09-23T20:42:18.025Z,74.32
2022-09-23T20:44:47.469Z,74.47
2022-09-23T20:47:17.724Z,74.65
2022-09-23T20:49:48.580Z,74.83
2022-09-23T20:52:20.035Z,74.81
2022-09-23T20:54:50.977Z,74.98
2022-09-23T20:57:20.225Z,75.00
2022-09-23T20:59:48.969Z,75.10
2022-09-23T21:02:18.023Z,75.47
2022-09-23T21:04:47.120Z,75.58
2022-09-23T21:07:16.883Z,75.64
2022-09-23T21:09:45.559Z,75.71
2022-09-23T21:12:14.675Z,76.03
2022-09-23T21:14:43.397Z,76.10
2022-09-23T21:17:12.067Z,76.74
2022-09-23T21:19:40.983Z,76.67
2022-09-23T21:22:09.920Z,76.85
2022-09-23T21:25:16.028Z,77.08
2022-09-23T21:27:27.302Z,77.16
2022-09-23T21:29:56.045Z,77.34
2022-09-23T21:32:24.734Z,77.51
2022-09-23T21:34:55.161Z,77.55
2022-09-23T21:37:24.849Z,77.97
2022-09-23T21:40:08.089Z,77.84
2022-09-23T21:42:36.979Z,78.27
2022-09-23T21:45:08.494Z,78.06
2022-09-23T21:47:37.196Z,78.36
2022-09-23T21:50:08.526Z,78.27
2022-09-23T21:52:38.510Z,78.45
2022-09-23T21:55:08.175Z,78.77
2022-09-23T21:57:37.653Z,78.80
2022-09-23T22:00:09.332Z,78.81
2022-09-23T22:02:39.327Z,78.80
2022-09-23T22:05:09.019Z,78.89
2022-09-23T22:07:37.904Z,79.22
2022-09-23T22:10:08.348Z,79.17
2022-09-23T22:12:36.771Z,79.44
2022-09-23T22:15:07.759Z,79.57
2022-09-23T22:17:36.923Z,79.30
2022-09-23T22:20:07.561Z,79.78
2022-09-23T22:22:36.315Z,79.62
2022-09-23T22:25:06.363Z,79.90
2022-09-23T22:27:55.830Z,80.03
2022-09-23T22:30:43.068Z,80.17
2022-09-23T22:33:15.679Z,80.30
2022-09-23T22:35:44.481Z,80.28
2022-09-23T22:38:13.278Z,80.30
2022-09-23T22:40:43.960Z,80.36
2022-09-23T22:43:13.476Z,80.60
2022-09-23T22:45:50.432Z,80.60
2022-09-23T22:48:20.423Z,80.78
2022-09-23T22:50:49.187Z,80.60
2022-09-23T22:53:20.681Z,80.82
2022-09-23T22:56:00.478Z,80.90
2022-09-23T22:58:32.483Z,81.31
2022-09-23T23:01:01.893Z,81.26
2022-09-23T23:03:33.831Z,81.23
2022-09-23T23:06:03.917Z,81.37
2022-09-23T23:08:36.538Z,81.47
2022-09-23T23:11:09.431Z,81.56
2022-09-23T23:13:41.292Z,81.34
2022-09-23T23:16:12.366Z,81.67
2022-09-23T23:18:42.709Z,81.81
2022-09-23T23:21:13.801Z,81.82
2022-09-23T23:23:44.683Z,81.64
2022-09-23T23:26:15.761Z,81.71
2022-09-23T23:28:46.048Z,81.87
2022-09-23T23:31:17.044Z,81.66
2022-09-23T23:33:46.402Z,81.84
2022-09-23T23:36:19.621Z,81.68
2022-09-23T23:38:51.149Z,81.52
2022-09-23T23:41:21.922Z,81.90
2022-09-23T23:43:56.010Z,81.79
2022-09-23T23:46:31.088Z,82.02
2022-09-23T23:49:01.040Z,82.14
2022-09-23T23:51:30.348Z,82.11
2022-09-23T23:54:00.095Z,82.28
2022-09-23T23:56:30.889Z,82.54
2022-09-23T23:59:02.259Z,82.10
